aviador You're here:

KOAK Decoded Metar

OAKLAND in CA, USA
Report Time2017-09-23 17:53:00
UTC Time2017-09-23 18:21:36
Flight Rules vfr VFR
Wind190° at 07 kt
W.Decomp.*RWY 15: 6.4 kt HW 2.8 kt RCW
RWY 11: 3.1 kt HW 6.3 kt RCW
RWY 09: 0.7 kt HW 7.0 kt RCW
W.Rank190° ranks 23
Current wind is above 190° avg. (6.3)
Visibility9999 m
Phenomena:N/A
Clouds:N/A
Expected CloudBase > 2,800 ft AGL from Temp-Dew spread
CeilingNone
Temp18°C (ISA +3)
Dew Point11°C (64% RH)
AAT15.8°C
QNH1014 hPa
Density Alt600 ft
Elevation85 ft
Report Wrong Elevation
Raw Report
METAR KOAK 231753Z 19007KT 10SM CLR 18/11 A2993 RMK AO2 SLP136 T01830106
10183 20094 50005=

Extra information for KOAK:More info

Metar Taf Metar & Taf Last 4 Metars F.Rules Stats Wind Profile Meteogram Temp Stats Airport Information Weather charts Add Link Nearby VenuesMetar ALERT Operation Metar Decoded Social comments

AIRNAV info for KOAK